Weather History for KSAZ - December, 2011

Change the Weather History Date:

Sunday, December 18, 2011

  Actual Average Record
Temperature  
Mean Temperature 32 °F -  
Max Temperature 46 °F - - ()
Min Temperature 17 °F - - ()
Degree Days  
Heating Degree Days 34    
Moisture  
Dew Point 24 °F    
Average Humidity 80    
Maximum Humidity 100    
Minimum Humidity 50    
Precipitation  
Precipitation 0.00 in - - ()
Sea Level Pressure  
Sea Level Pressure 29.75 in    
Wind  
Wind Speed 7 mph (SSW)    
Max Wind Speed 12 mph    
Max Gust Speed 20 mph    
Visibility 10 miles    
Events      
T = Trace of Precipitation, MM = Missing Value Source: NWS Daily Summary

Daily Weather History Graph

Daily Weather History Graph

Search for Another Location

Airport or City:

Trip Planner

Search our weather history database for the weather conditions in past years. The results will help you decide how hot, cold, wet, or windy it might be!

Date:

Astronomy

Dec. 18, 2011 Rise Set
Actual Time 7:57 AM CST 4:33 PM CST
Civil Twilight 7:22 AM CST 5:08 PM CST
Nautical Twilight 6:44 AM CST 5:47 PM CST
Astronomical Twilight 6:07 AM CST 6:23 PM CST
Moon 12:41 AM CST (12/18) 12:15 PM CST (12/18)
Length of Visible Light 9h 45m
Length of Day
8h 35m
Last Quarter, 42% of the Moon is Illuminated
Dec 18
Last Quarter
Dec 24
New
Jan 1
First Quarter
Jan 9
Full
Jan 16
Last Quarter

Hourly Weather History & Observations

Time (CST) Temp. Windchill Dew Point Humidity Pressure Visibility Wind Dir Wind Speed Gust Speed Precip Events Conditions
12:13 AM 17.6 °F 10.7 °F 17.6 °F 100% 30.01 in 10.0 mi South 4.6 mph - N/A   Clear
12:33 AM 17.6 °F 9.3 °F 17.6 °F 100% 30.01 in 10.0 mi South 5.8 mph - N/A   Clear
12:54 AM 19.4 °F 12.8 °F 17.6 °F 93% 29.99 in 10.0 mi SSE 4.6 mph - N/A   Clear
1:13 AM 19.4 °F 12.8 °F 17.6 °F 93% 29.98 in 10.0 mi SSE 4.6 mph - N/A   Clear
1:33 AM 17.6 °F 10.7 °F 17.6 °F 100% 29.97 in 10.0 mi South 4.6 mph - N/A   Clear
1:53 AM 17.6 °F 9.3 °F 15.8 °F 93% 29.96 in 10.0 mi South 5.8 mph - N/A   Clear
2:13 AM 17.6 °F 9.3 °F 17.6 °F 100% 29.95 in 10.0 mi SSE 5.8 mph - N/A   Clear
2:33 AM 17.6 °F 10.7 °F 17.6 °F 100% 29.94 in 10.0 mi SSE 4.6 mph - N/A   Clear
2:53 AM 19.4 °F 12.8 °F 17.6 °F 93% 29.93 in 10.0 mi SSE 4.6 mph - N/A   Clear
3:13 AM 19.4 °F 10.4 °F 17.6 °F 93% 29.91 in 10.0 mi SSE 6.9 mph - N/A   Clear
3:33 AM 19.4 °F 9.5 °F 17.6 °F 93% 29.90 in 10.0 mi South 8.1 mph - N/A   Clear
3:53 AM 19.4 °F 10.4 °F 17.6 °F 93% 29.89 in 10.0 mi SSE 6.9 mph - N/A   Clear
4:13 AM 21.2 °F 11.7 °F 17.6 °F 86% 29.88 in 10.0 mi South 8.1 mph - N/A   Clear
4:33 AM 19.4 °F 10.4 °F 17.6 °F 93% 29.87 in 10.0 mi South 6.9 mph - N/A   Clear
4:54 AM 19.4 °F 9.5 °F 17.6 °F 93% 29.86 in 10.0 mi South 8.1 mph - N/A   Clear
5:13 AM 21.2 °F 10.9 °F 19.4 °F 93% 29.86 in 10.0 mi South 9.2 mph - N/A   Clear
5:33 AM 21.2 °F 10.1 °F 19.4 °F 93% 29.84 in 10.0 mi South 10.4 mph - N/A   Clear
5:54 AM 21.2 °F 10.1 °F 19.4 °F 93% 29.83 in 10.0 mi South 10.4 mph - N/A   Clear
6:13 AM 23.0 °F 12.4 °F 21.2 °F 93% 29.81 in 10.0 mi South 10.4 mph - N/A   Clear
6:33 AM 23.0 °F 12.4 °F 21.2 °F 93% 29.80 in 10.0 mi South 10.4 mph - N/A   Clear
6:53 AM 23.0 °F 13.1 °F 21.2 °F 93% 29.79 in 10.0 mi South 9.2 mph - N/A   Clear
7:13 AM 23.0 °F 13.9 °F 21.2 °F 93% 29.78 in 10.0 mi South 8.1 mph - N/A   Clear
7:33 AM 23.0 °F 13.9 °F 21.2 °F 93% 29.77 in 10.0 mi South 8.1 mph - N/A   Clear
7:53 AM 21.2 °F 13.6 °F 21.2 °F 100% 29.76 in 10.0 mi South 5.8 mph - N/A   Clear
8:13 AM 21.2 °F 13.6 °F 19.4 °F 93% 29.76 in 10.0 mi SSE 5.8 mph - N/A   Clear
8:33 AM 23.0 °F 15.8 °F 21.2 °F 93% 29.75 in 10.0 mi SSE 5.8 mph - N/A   Clear
8:53 AM 24.8 °F 19.1 °F 21.2 °F 86% 29.74 in 10.0 mi SSE 4.6 mph - N/A   Clear
9:13 AM 26.6 °F 21.2 °F 23.0 °F 86% 29.74 in 10.0 mi South 4.6 mph - N/A   Clear
9:34 AM 28.4 °F 23.3 °F 24.8 °F 86% 29.74 in 10.0 mi South 4.6 mph - N/A   Clear
9:53 AM 30.2 °F 23.4 °F 26.6 °F 86% 29.72 in 10.0 mi South 6.9 mph - N/A   Clear
10:13 AM 32.0 °F 26.4 °F 26.6 °F 80% 29.72 in 10.0 mi South 5.8 mph - N/A   Clear
10:34 AM 33.8 °F 27.0 °F 26.6 °F 75% 29.71 in 10.0 mi SSW 8.1 mph - N/A   Clear
10:53 AM 35.6 °F 29.9 °F 28.4 °F 75% 29.70 in 10.0 mi SW 6.9 mph - N/A   Clear
11:13 AM 37.4 °F 31.4 °F 28.4 °F 70% 29.69 in 10.0 mi SW 8.1 mph - N/A   Clear
11:34 AM 39.2 °F 32.5 °F 26.6 °F 61% 29.67 in 10.0 mi SW 10.4 mph - N/A   Clear
12:13 PM 42.8 °F 36.6 °F 26.6 °F 53% 29.64 in 10.0 mi SW 11.5 mph - N/A   Clear
12:34 PM 42.8 °F 36.6 °F 26.6 °F 53% 29.63 in 10.0 mi SW 11.5 mph 17.3 mph N/A   Clear
1:13 PM 44.6 °F 39.7 °F 28.4 °F 53% 29.62 in 10.0 mi SW 9.2 mph - N/A   Clear
1:53 PM 44.6 °F 38.8 °F 28.4 °F 53% 29.60 in 10.0 mi SW 11.5 mph - N/A   Clear
2:33 PM 46.4 °F 41.5 °F 28.4 °F 50% 29.60 in 10.0 mi SW 10.4 mph - N/A   Clear
2:54 PM 46.4 °F 41.5 °F 28.4 °F 50% 29.60 in 10.0 mi SW 10.4 mph - N/A   Clear
3:33 PM 44.6 °F 41.4 °F 28.4 °F 53% 29.59 in 10.0 mi SSW 5.8 mph - N/A   Clear
3:53 PM 42.8 °F 38.6 °F 28.4 °F 57% 29.59 in 10.0 mi SSW 6.9 mph - N/A   Clear
4:13 PM 42.8 °F 40.1 °F 28.4 °F 57% 29.59 in 10.0 mi SW 4.6 mph - N/A   Clear
4:33 PM 39.2 °F - 28.4 °F 65% 29.59 in 10.0 mi Calm Calm - N/A   Clear
4:53 PM 37.4 °F 34.9 °F 28.4 °F 70% 29.59 in 10.0 mi SSW 3.5 mph - N/A   Clear
5:13 PM 37.4 °F 34.9 °F 28.4 °F 70% 29.59 in 10.0 mi SSW 3.5 mph - N/A   Clear
5:34 PM 37.4 °F 33.8 °F 28.4 °F 70% 29.59 in 10.0 mi SW 4.6 mph - N/A   Clear
5:53 PM 35.6 °F 32.8 °F 28.4 °F 75% 29.60 in 10.0 mi SW 3.5 mph - N/A   Clear
6:13 PM 37.4 °F 33.8 °F 28.4 °F 70% 29.60 in 10.0 mi SW 4.6 mph - N/A   Clear
6:33 PM 37.4 °F 33.8 °F 30.2 °F 75% 29.61 in 10.0 mi SW 4.6 mph - N/A   Clear
6:54 PM 37.4 °F 32.8 °F 30.2 °F 75% 29.61 in 10.0 mi SW 5.8 mph - N/A   Clear
7:13 PM 37.4 °F 32.1 °F 30.2 °F 75% 29.62 in 10.0 mi West 6.9 mph - N/A   Clear
7:33 PM 39.2 °F 32.0 °F 30.2 °F 70% 29.62 in 10.0 mi West 11.5 mph - N/A   Clear
7:54 PM 39.2 °F 32.0 °F 30.2 °F 70% 29.62 in 10.0 mi West 11.5 mph - N/A   Clear
8:13 PM 41.0 °F 34.3 °F 30.2 °F 65% 29.64 in 10.0 mi WNW 11.5 mph - N/A   Clear
8:33 PM 39.2 °F 32.0 °F 30.2 °F 70% 29.65 in 10.0 mi WNW 11.5 mph 19.6 mph N/A   Clear
8:54 PM 39.2 °F 32.5 °F 30.2 °F 70% 29.66 in 10.0 mi WNW 10.4 mph - N/A   Clear
9:13 PM 37.4 °F 30.3 °F 30.2 °F 75% 29.67 in 10.0 mi WNW 10.4 mph - N/A   Clear
9:33 PM 35.6 °F 28.0 °F 30.2 °F 81% 29.68 in 10.0 mi WNW 10.4 mph - N/A   Clear
9:54 PM 33.8 °F 26.4 °F 28.4 °F 81% 29.70 in 10.0 mi NW 9.2 mph - N/A   Clear
10:13 PM 33.8 °F 25.8 °F 28.4 °F 81% 29.71 in 10.0 mi NW 10.4 mph - N/A   Clear
10:33 PM 33.8 °F 24.3 °F 28.4 °F 81% 29.73 in 10.0 mi NNW 13.8 mph 19.6 mph N/A   Mostly Cloudy
10:54 PM 33.8 °F 25.3 °F 28.4 °F 81% 29.75 in 10.0 mi NNW 11.5 mph 18.4 mph N/A   Overcast
11:13 PM 33.8 °F 24.8 °F 28.4 °F 81% 29.77 in 10.0 mi NW 12.7 mph - N/A   Overcast
11:33 PM 33.8 °F 25.8 °F 28.4 °F 81% 29.78 in 10.0 mi NW 10.4 mph 18.4 mph N/A   Overcast
11:53 PM 32.0 °F 23.0 °F 28.4 °F 87% 29.79 in 10.0 mi NW 11.5 mph - N/A   Overcast